createdAt,value
2023-02-19T00:00:06.160Z,3.22
2023-02-19T00:03:05.557Z,3.23
2023-02-19T00:05:17.341Z,3.25
2023-02-19T00:07:29.137Z,3.25
2023-02-19T00:09:40.614Z,3.25
2023-02-19T00:11:52.611Z,3.26
2023-02-19T00:14:04.743Z,3.26
2023-02-19T00:16:21.324Z,3.26
2023-02-19T00:18:33.096Z,3.26
2023-02-19T00:20:44.896Z,3.27
2023-02-19T00:22:56.885Z,3.27
2023-02-19T00:25:08.571Z,3.27
2023-02-19T00:27:20.605Z,3.28
2023-02-19T00:29:32.867Z,3.29
2023-02-19T00:31:45.792Z,3.27
2023-02-19T00:34:00.646Z,3.26
2023-02-19T00:36:13.173Z,3.23
2023-02-19T00:38:25.254Z,3.23
2023-02-19T00:40:38.579Z,3.23
2023-02-19T00:42:50.778Z,3.23
2023-02-19T00:45:03.188Z,3.23
2023-02-19T00:47:15.483Z,3.22
2023-02-19T00:49:27.178Z,3.21
2023-02-19T00:51:39.300Z,3.21
2023-02-19T00:53:51.775Z,3.21
2023-02-19T00:56:04.488Z,3.19
2023-02-19T00:58:16.382Z,3.19
2023-02-19T01:00:28.068Z,3.18
2023-02-19T01:02:39.754Z,3.16
2023-02-19T01:04:51.771Z,3.16
2023-02-19T01:07:03.946Z,3.16
2023-02-19T01:09:16.042Z,3.13
2023-02-19T01:11:27.934Z,3.10
2023-02-19T01:13:40.561Z,3.09
2023-02-19T01:15:52.703Z,3.08
2023-02-19T01:18:05.291Z,3.08
2023-02-19T01:20:17.345Z,3.07
2023-02-19T01:22:29.033Z,3.07
2023-02-19T01:24:41.027Z,3.08
2023-02-19T01:26:53.022Z,3.09
2023-02-19T01:29:05.230Z,3.10
2023-02-19T01:31:22.895Z,3.10
2023-02-19T01:33:35.472Z,3.10
2023-02-19T01:35:47.554Z,3.11
2023-02-19T01:37:59.469Z,3.12
2023-02-19T01:40:11.442Z,3.13
2023-02-19T01:42:23.130Z,3.15
2023-02-19T01:44:35.232Z,3.17
2023-02-19T01:46:48.761Z,3.15
2023-02-19T01:49:21.348Z,3.15
2023-02-19T01:51:36.620Z,3.11
2023-02-19T01:53:56.291Z,3.13
2023-02-19T01:56:09.926Z,3.14
2023-02-19T01:58:26.013Z,3.14
2023-02-19T02:00:37.829Z,3.14
2023-02-19T02:02:55.016Z,3.16
2023-02-19T02:05:14.000Z,3.16
2023-02-19T02:07:45.224Z,3.14
2023-02-19T02:10:16.468Z,3.13
2023-02-19T02:12:28.357Z,3.12
2023-02-19T02:14:48.341Z,3.12
2023-02-19T02:17:25.526Z,3.11
2023-02-19T02:19:59.023Z,3.12
2023-02-19T02:22:21.164Z,3.11
2023-02-19T02:25:00.394Z,3.11
2023-02-19T02:27:43.992Z,3.12
2023-02-19T02:30:08.669Z,3.10
2023-02-19T02:32:26.798Z,3.10
2023-02-19T02:35:01.382Z,3.08
2023-02-19T02:37:15.892Z,3.10
2023-02-19T02:39:28.546Z,3.10
2023-02-19T02:41:46.478Z,3.11
2023-02-19T02:43:58.701Z,3.12
2023-02-19T02:46:20.402Z,3.12
2023-02-19T02:48:40.697Z,3.11
2023-02-19T02:50:58.931Z,3.10
2023-02-19T02:53:38.883Z,3.08
2023-02-19T02:55:53.540Z,3.05
2023-02-19T02:58:06.249Z,3.06
2023-02-19T03:00:18.762Z,3.06
2023-02-19T03:02:31.516Z,3.05
2023-02-19T03:05:13.877Z,3.05
2023-02-19T03:07:32.493Z,3.04
2023-02-19T03:09:44.726Z,3.03
2023-02-19T03:12:30.412Z,3.02
2023-02-19T03:15:09.746Z,3.04
2023-02-19T03:17:46.625Z,3.05
2023-02-19T03:20:01.189Z,3.05
2023-02-19T03:22:22.189Z,3.05
2023-02-19T03:24:56.810Z,3.05
2023-02-19T03:27:10.656Z,3.07
2023-02-19T03:29:29.710Z,3.09
2023-02-19T03:31:49.494Z,3.10
2023-02-19T03:34:07.254Z,3.09
2023-02-19T03:36:26.225Z,3.08
2023-02-19T03:38:52.098Z,3.10
2023-02-19T03:41:22.414Z,3.11
2023-02-19T03:44:08.816Z,3.11
2023-02-19T03:46:39.906Z,3.11
2023-02-19T03:48:57.435Z,3.11
2023-02-19T03:51:25.161Z,3.11
2023-02-19T03:54:02.384Z,3.12
2023-02-19T03:56:28.153Z,3.13
2023-02-19T03:58:51.208Z,3.14
2023-02-19T04:01:08.849Z,3.16
2023-02-19T04:03:26.978Z,3.16
2023-02-19T04:05:45.674Z,3.14
2023-02-19T04:08:04.393Z,3.16
2023-02-19T04:10:19.963Z,3.17
2023-02-19T04:12:37.316Z,3.17
2023-02-19T04:14:54.971Z,3.18
2023-02-19T04:17:28.404Z,3.18
2023-02-19T04:19:42.867Z,3.19
2023-02-19T04:21:58.743Z,3.19
2023-02-19T04:24:16.302Z,3.19
2023-02-19T04:26:29.286Z,3.20
2023-02-19T04:28:43.178Z,3.18
2023-02-19T04:30:54.732Z,3.18
2023-02-19T04:33:06.397Z,3.17
2023-02-19T04:35:18.181Z,3.17
2023-02-19T04:37:29.973Z,3.17
2023-02-19T04:39:41.576Z,3.17
2023-02-19T04:41:53.453Z,3.18
2023-02-19T04:44:05.668Z,3.15
2023-02-19T04:46:17.565Z,3.14
2023-02-19T04:48:30.008Z,3.14
2023-02-19T04:50:41.733Z,3.14
2023-02-19T04:52:53.321Z,3.16
2023-02-19T04:55:05.723Z,3.16
2023-02-19T04:57:17.717Z,3.17
2023-02-19T04:59:29.505Z,3.18
2023-02-19T05:01:41.641Z,3.17
2023-02-19T05:03:53.802Z,3.17
2023-02-19T05:06:11.779Z,3.15
2023-02-19T05:08:23.833Z,3.13
2023-02-19T05:10:35.931Z,3.11
2023-02-19T05:12:47.413Z,3.09
2023-02-19T05:14:59.408Z,3.07
2023-02-19T05:17:11.304Z,3.06
2023-02-19T05:19:23.092Z,3.04
2023-02-19T05:21:34.879Z,3.04
2023-02-19T05:23:46.777Z,3.05
2023-02-19T05:25:58.358Z,3.06
2023-02-19T05:28:19.477Z,3.05
2023-02-19T05:30:31.524Z,3.05
2023-02-19T05:32:43.766Z,3.06
2023-02-19T05:34:55.859Z,3.05
2023-02-19T05:37:08.059Z,3.05
2023-02-19T05:39:19.848Z,3.05
2023-02-19T05:41:31.870Z,3.05
2023-02-19T05:43:45.901Z,3.02
2023-02-19T05:46:01.116Z,3.02
2023-02-19T05:48:13.169Z,3.00
2023-02-19T05:50:25.349Z,2.98
2023-02-19T05:52:37.349Z,2.97
2023-02-19T05:54:49.545Z,2.96
2023-02-19T05:57:01.231Z,2.96
2023-02-19T05:59:19.288Z,2.95
2023-02-19T06:01:31.264Z,2.95
2023-02-19T06:03:43.204Z,2.94
2023-02-19T06:05:55.355Z,2.93
2023-02-19T06:08:07.452Z,2.90
2023-02-19T06:10:19.552Z,2.87
2023-02-19T06:12:31.749Z,2.86
2023-02-19T06:14:43.335Z,2.84
2023-02-19T06:16:55.023Z,2.84
2023-02-19T06:19:06.921Z,2.83
2023-02-19T06:21:19.625Z,2.83
2023-02-19T06:23:32.111Z,2.85
2023-02-19T06:25:43.722Z,2.86
2023-02-19T06:27:55.716Z,2.86
2023-02-19T06:30:08.846Z,2.87
2023-02-19T06:32:20.879Z,2.86
2023-02-19T06:34:34.464Z,2.86
2023-02-19T06:36:49.327Z,2.84
2023-02-19T06:39:01.529Z,2.84
2023-02-19T06:41:14.492Z,2.82
2023-02-19T06:43:26.543Z,2.82
2023-02-19T06:45:38.237Z,2.82
2023-02-19T06:47:49.765Z,2.83
2023-02-19T06:50:01.736Z,2.85
2023-02-19T06:52:13.807Z,2.87
2023-02-19T06:54:26.182Z,2.88
2023-02-19T06:56:40.303Z,2.88
2023-02-19T06:58:54.477Z,2.88
2023-02-19T07:01:06.107Z,2.89
2023-02-19T07:03:18.589Z,2.89
2023-02-19T07:05:30.789Z,2.91
2023-02-19T07:07:46.062Z,2.93
2023-02-19T07:09:57.847Z,2.96
2023-02-19T07:12:10.356Z,2.99
2023-02-19T07:14:22.366Z,3.02
2023-02-19T07:16:34.716Z,3.04
2023-02-19T07:18:47.053Z,3.06
2023-02-19T07:21:04.177Z,3.09
2023-02-19T07:23:15.649Z,3.10
2023-02-19T07:25:27.542Z,3.11
2023-02-19T07:27:39.130Z,3.11
2023-02-19T07:29:50.920Z,3.12
2023-02-19T07:32:02.702Z,3.14
2023-02-19T07:34:14.703Z,3.13
2023-02-19T07:36:26.799Z,3.12
2023-02-19T07:38:38.794Z,3.10
2023-02-19T07:40:59.189Z,3.10
2023-02-19T07:43:11.188Z,3.10
2023-02-19T07:45:23.015Z,3.13
2023-02-19T07:47:34.866Z,3.17
2023-02-19T07:49:47.068Z,3.19
2023-02-19T07:51:59.266Z,3.23
2023-02-19T07:54:11.770Z,3.27
2023-02-19T07:56:23.973Z,3.31
2023-02-19T07:58:36.994Z,3.38
2023-02-19T08:00:48.967Z,3.43
2023-02-19T08:03:01.031Z,3.46
2023-02-19T08:05:14.006Z,3.52
2023-02-19T08:07:25.687Z,3.58
2023-02-19T08:09:38.301Z,3.68
2023-02-19T08:12:08.992Z,3.75
2023-02-19T08:14:25.223Z,3.80
2023-02-19T08:16:42.891Z,3.90
2023-02-19T08:18:57.916Z,4.01
2023-02-19T08:21:11.030Z,4.07
2023-02-19T08:23:23.747Z,4.09
2023-02-19T08:25:36.052Z,4.09
2023-02-19T08:27:48.042Z,4.08
2023-02-19T08:30:00.075Z,4.06
2023-02-19T08:32:12.588Z,4.04
2023-02-19T08:34:24.446Z,4.07
2023-02-19T08:36:36.645Z,4.17
2023-02-19T08:38:48.224Z,4.27
2023-02-19T08:41:00.021Z,4.46
2023-02-19T08:43:13.954Z,4.64
2023-02-19T08:45:25.536Z,4.69
2023-02-19T08:47:38.760Z,4.70
2023-02-19T08:49:50.958Z,4.67
2023-02-19T08:52:02.749Z,4.59
2023-02-19T08:54:14.435Z,4.54
2023-02-19T08:56:26.224Z,4.46
2023-02-19T08:58:38.728Z,4.40
2023-02-19T09:00:50.315Z,4.36
2023-02-19T09:03:02.417Z,4.34
2023-02-19T09:05:14.516Z,4.30
2023-02-19T09:07:26.196Z,4.25
2023-02-19T09:09:38.601Z,4.23
2023-02-19T09:11:50.701Z,4.23
2023-02-19T09:14:02.365Z,4.25
2023-02-19T09:16:14.148Z,4.31
2023-02-19T09:18:27.093Z,4.43
2023-02-19T09:20:39.197Z,4.60
2023-02-19T09:22:57.646Z,4.71
2023-02-19T09:25:10.245Z,4.77
2023-02-19T09:27:22.240Z,4.80
2023-02-19T09:29:34.754Z,4.92
2023-02-19T09:31:46.636Z,4.96
2023-02-19T09:33:58.739Z,5.16
2023-02-19T09:36:11.246Z,5.34
2023-02-19T09:38:23.041Z,5.62
2023-02-19T09:40:36.584Z,5.62
2023-02-19T09:42:51.637Z,5.56
2023-02-19T09:45:05.171Z,5.50
2023-02-19T09:47:29.612Z,5.44
2023-02-19T09:49:50.264Z,5.35
2023-02-19T09:52:28.863Z,5.27
2023-02-19T09:54:41.713Z,5.15
2023-02-19T09:56:56.541Z,5.08
2023-02-19T09:59:21.541Z,5.07
2023-02-19T10:01:37.852Z,5.08
2023-02-19T10:03:49.931Z,5.18
2023-02-19T10:06:24.147Z,5.45
2023-02-19T10:08:38.005Z,5.66
2023-02-19T10:10:49.897Z,5.76
2023-02-19T10:13:34.843Z,5.85
2023-02-19T10:16:00.931Z,5.96
2023-02-19T10:18:13.066Z,6.12
2023-02-19T10:20:28.132Z,6.34
2023-02-19T10:22:42.322Z,6.69
2023-02-19T10:24:56.528Z,7.02
2023-02-19T10:27:13.743Z,7.22
2023-02-19T10:29:27.423Z,7.28
2023-02-19T10:31:39.231Z,7.24
2023-02-19T10:34:00.438Z,7.26
2023-02-19T10:36:26.694Z,7.20
2023-02-19T10:38:47.117Z,7.11
2023-02-19T10:41:06.571Z,7.02
2023-02-19T10:43:31.368Z,6.80
2023-02-19T10:45:50.408Z,6.50
2023-02-19T10:48:03.549Z,6.29
2023-02-19T10:50:39.369Z,6.15
2023-02-19T10:52:54.622Z,6.01
2023-02-19T10:55:19.168Z,5.97
2023-02-19T10:57:33.116Z,6.15
2023-02-19T10:59:53.801Z,6.42
2023-02-19T11:02:17.569Z,6.70
2023-02-19T11:04:35.599Z,6.90
2023-02-19T11:06:48.148Z,7.01
2023-02-19T11:09:01.446Z,7.00
2023-02-19T11:11:26.300Z,7.09
2023-02-19T11:13:39.865Z,7.11
2023-02-19T11:15:54.526Z,7.09
2023-02-19T11:18:12.563Z,7.20
2023-02-19T11:20:26.607Z,7.37
2023-02-19T11:22:47.018Z,7.46
2023-02-19T11:25:25.934Z,7.46
2023-02-19T11:27:58.410Z,7.40
2023-02-19T11:30:40.144Z,7.46
2023-02-19T11:32:51.977Z,7.64
2023-02-19T11:35:19.652Z,7.72
2023-02-19T11:37:32.255Z,7.61
2023-02-19T11:39:51.941Z,7.53
2023-02-19T11:42:35.476Z,7.61
2023-02-19T11:45:26.792Z,7.72
2023-02-19T11:48:03.861Z,7.68
2023-02-19T11:50:34.392Z,7.71
2023-02-19T11:52:50.073Z,7.51
2023-02-19T11:55:08.008Z,7.28
2023-02-19T11:57:44.373Z,7.07
2023-02-19T12:00:02.398Z,6.96
2023-02-19T12:02:20.978Z,6.98
2023-02-19T12:05:07.690Z,7.12
2023-02-19T12:07:50.478Z,7.33
2023-02-19T12:10:07.289Z,7.42
2023-02-19T12:12:38.082Z,7.43
2023-02-19T12:14:57.193Z,7.53
2023-02-19T12:17:30.893Z,7.68
2023-02-19T12:19:51.487Z,7.80
2023-02-19T12:22:24.675Z,7.82
2023-02-19T12:24:48.857Z,7.84
2023-02-19T12:27:22.971Z,7.82
2023-02-19T12:30:05.832Z,7.72
2023-02-19T12:32:33.244Z,7.57
2023-02-19T12:35:14.729Z,7.42
2023-02-19T12:37:44.337Z,7.29
2023-02-19T12:40:13.025Z,7.29
2023-02-19T12:42:36.867Z,7.30
2023-02-19T12:44:57.910Z,7.19
2023-02-19T12:47:18.396Z,7.08
2023-02-19T12:49:47.988Z,7.02
2023-02-19T12:52:06.556Z,7.02
2023-02-19T12:54:33.499Z,7.02
2023-02-19T12:56:55.263Z,7.03
2023-02-19T12:59:13.914Z,7.04
2023-02-19T13:01:35.365Z,7.06
2023-02-19T13:04:06.845Z,7.10
2023-02-19T13:06:38.192Z,7.15
2023-02-19T13:09:07.606Z,7.14
2023-02-19T13:11:34.543Z,7.15
2023-02-19T13:13:55.546Z,7.24
2023-02-19T13:16:19.477Z,7.27
2023-02-19T13:18:54.661Z,7.28
2023-02-19T13:21:07.271Z,7.22
2023-02-19T13:23:50.093Z,7.24
2023-02-19T13:26:14.714Z,7.18
2023-02-19T13:28:41.418Z,7.18
2023-02-19T13:31:02.745Z,7.17
2023-02-19T13:33:45.037Z,7.18
2023-02-19T13:36:06.398Z,7.18
2023-02-19T13:38:18.863Z,7.18
2023-02-19T13:40:36.184Z,7.17
2023-02-19T13:42:57.042Z,7.08
2023-02-19T13:45:42.051Z,6.97
2023-02-19T13:48:00.104Z,6.87
2023-02-19T13:50:21.594Z,6.81
2023-02-19T13:52:38.109Z,6.74
2023-02-19T13:54:50.302Z,6.71
2023-02-19T13:57:27.074Z,6.72
2023-02-19T13:59:40.606Z,6.76
2023-02-19T14:01:55.884Z,6.78
2023-02-19T14:04:18.936Z,6.79
2023-02-19T14:06:30.839Z,6.76
2023-02-19T14:08:48.097Z,6.73
2023-02-19T14:11:03.040Z,6.72
2023-02-19T14:13:58.418Z,6.70
2023-02-19T14:16:29.257Z,6.69
2023-02-19T14:18:46.770Z,6.72
2023-02-19T14:21:14.547Z,6.77
2023-02-19T14:23:26.435Z,6.78
2023-02-19T14:25:49.293Z,6.74
2023-02-19T14:28:10.186Z,6.69
2023-02-19T14:30:23.852Z,6.62
2023-02-19T14:32:36.340Z,6.56
2023-02-19T14:34:48.422Z,6.52
2023-02-19T14:37:02.254Z,6.48
2023-02-19T14:39:18.972Z,6.47
2023-02-19T14:41:33.397Z,6.46
2023-02-19T14:43:49.117Z,6.47
2023-02-19T14:46:07.754Z,6.50
2023-02-19T14:48:26.912Z,6.48
2023-02-19T14:50:38.800Z,6.45
2023-02-19T14:52:55.499Z,6.42
2023-02-19T14:55:30.746Z,6.42
2023-02-19T14:57:46.246Z,6.42
2023-02-19T15:00:00.690Z,6.41
2023-02-19T15:02:21.184Z,6.40
2023-02-19T15:04:37.612Z,6.35
2023-02-19T15:06:53.248Z,6.32
2023-02-19T15:09:07.298Z,6.30
2023-02-19T15:11:23.187Z,6.23
2023-02-19T15:13:35.544Z,6.13
2023-02-19T15:15:47.949Z,6.05
2023-02-19T15:18:02.043Z,5.96
2023-02-19T15:20:26.527Z,5.88
2023-02-19T15:23:25.439Z,5.76
2023-02-19T15:25:39.525Z,5.72
2023-02-19T15:27:51.961Z,5.70
2023-02-19T15:30:16.874Z,5.69
2023-02-19T15:32:29.572Z,5.68
2023-02-19T15:34:42.163Z,5.67
2023-02-19T15:37:00.735Z,5.63
2023-02-19T15:39:21.548Z,5.61
2023-02-19T15:41:35.578Z,5.59
2023-02-19T15:43:56.589Z,5.57
2023-02-19T15:46:19.828Z,5.51
2023-02-19T15:48:45.658Z,5.44
2023-02-19T15:51:08.321Z,5.38
2023-02-19T15:53:31.210Z,5.34
2023-02-19T15:55:45.719Z,5.30
2023-02-19T15:58:09.189Z,5.25
2023-02-19T16:00:36.657Z,5.20
2023-02-19T16:02:49.059Z,5.15
2023-02-19T16:05:02.514Z,5.12
2023-02-19T16:07:35.043Z,5.08
2023-02-19T16:09:47.009Z,5.03
2023-02-19T16:12:03.025Z,4.99
2023-02-19T16:14:35.397Z,4.95
2023-02-19T16:16:51.311Z,4.88
2023-02-19T16:19:03.004Z,4.84
2023-02-19T16:21:16.945Z,4.77
2023-02-19T16:23:29.115Z,4.71
2023-02-19T16:25:44.613Z,4.64
2023-02-19T16:27:57.702Z,4.59
2023-02-19T16:30:25.470Z,4.54
2023-02-19T16:32:37.666Z,4.47
2023-02-19T16:34:51.816Z,4.39
2023-02-19T16:37:05.138Z,4.35
2023-02-19T16:39:19.576Z,4.30
2023-02-19T16:41:31.208Z,4.25
2023-02-19T16:43:43.893Z,4.24
2023-02-19T16:45:59.076Z,4.21
2023-02-19T16:48:11.875Z,4.19
2023-02-19T16:50:26.876Z,4.16
2023-02-19T16:52:57.465Z,4.13
2023-02-19T16:55:13.862Z,4.08
2023-02-19T16:57:25.518Z,4.04
2023-02-19T16:59:37.356Z,4.01
2023-02-19T17:01:49.540Z,3.97
2023-02-19T17:04:06.920Z,3.93
2023-02-19T17:06:18.546Z,3.90
2023-02-19T17:08:42.523Z,3.86
2023-02-19T17:10:56.194Z,3.82
2023-02-19T17:13:08.867Z,3.78
2023-02-19T17:15:22.748Z,3.75
2023-02-19T17:17:34.914Z,3.72
2023-02-19T17:19:46.795Z,3.68
2023-02-19T17:21:59.044Z,3.65
2023-02-19T17:24:11.738Z,3.62
2023-02-19T17:26:26.364Z,3.58
2023-02-19T17:28:40.450Z,3.54
2023-02-19T17:30:54.155Z,3.52
2023-02-19T17:33:05.932Z,3.48
2023-02-19T17:35:18.034Z,3.45
2023-02-19T17:37:30.034Z,3.42
2023-02-19T17:39:42.030Z,3.39
2023-02-19T17:41:53.910Z,3.36
2023-02-19T17:44:05.614Z,3.33
2023-02-19T17:46:19.419Z,3.31
2023-02-19T17:48:31.018Z,3.28
2023-02-19T17:50:43.730Z,3.25
2023-02-19T17:52:55.725Z,3.21
2023-02-19T17:55:07.927Z,3.20
2023-02-19T17:57:19.925Z,3.19
2023-02-19T17:59:32.022Z,3.18
2023-02-19T18:01:46.179Z,3.15
2023-02-19T18:03:57.813Z,3.13
2023-02-19T18:06:09.640Z,3.10
2023-02-19T18:08:21.331Z,3.07
2023-02-19T18:10:33.223Z,3.02
2023-02-19T18:12:45.113Z,2.99
2023-02-19T18:14:57.536Z,2.97
2023-02-19T18:17:09.689Z,2.93
2023-02-19T18:19:23.052Z,2.91
2023-02-19T18:21:34.627Z,2.88
2023-02-19T18:23:46.850Z,2.87
2023-02-19T18:25:58.720Z,2.86
2023-02-19T18:28:11.123Z,2.84
2023-02-19T18:30:24.012Z,2.82
2023-02-19T18:32:36.446Z,2.78
2023-02-19T18:34:56.224Z,2.75
2023-02-19T18:37:08.122Z,2.73
2023-02-19T18:39:20.006Z,2.71
2023-02-19T18:41:32.206Z,2.67
2023-02-19T18:43:44.200Z,2.66
2023-02-19T18:45:56.023Z,2.63
2023-02-19T18:48:08.088Z,2.59
2023-02-19T18:50:20.502Z,2.55
2023-02-19T18:52:32.287Z,2.52
2023-02-19T18:54:44.740Z,2.49
2023-02-19T18:56:57.438Z,2.46
2023-02-19T18:59:10.110Z,2.42
2023-02-19T19:01:21.709Z,2.39
2023-02-19T19:03:34.211Z,2.37
2023-02-19T19:05:46.607Z,2.34
2023-02-19T19:08:27.014Z,2.33
2023-02-19T19:10:41.423Z,2.31
2023-02-19T19:12:54.574Z,2.29
2023-02-19T19:15:08.994Z,2.27
2023-02-19T19:17:21.309Z,2.23
2023-02-19T19:19:36.621Z,2.21
2023-02-19T19:21:54.677Z,2.20
2023-02-19T19:24:10.183Z,2.17
2023-02-19T19:26:22.996Z,2.13
2023-02-19T19:28:39.062Z,2.09
2023-02-19T19:31:01.239Z,2.08
2023-02-19T19:33:17.765Z,2.05
2023-02-19T19:35:31.392Z,2.03
2023-02-19T19:37:45.914Z,2.02
2023-02-19T19:39:59.541Z,1.99
2023-02-19T19:42:12.674Z,1.96
2023-02-19T19:44:25.986Z,1.95
2023-02-19T19:46:46.494Z,1.93
2023-02-19T19:48:59.949Z,1.92
2023-02-19T19:51:14.185Z,1.91
2023-02-19T19:53:27.482Z,1.89
2023-02-19T19:55:40.298Z,1.88
2023-02-19T19:57:57.766Z,1.87
2023-02-19T20:00:16.315Z,1.86
2023-02-19T20:02:28.186Z,1.84
2023-02-19T20:04:39.926Z,1.84
2023-02-19T20:06:52.454Z,1.83
2023-02-19T20:09:06.293Z,1.85
2023-02-19T20:11:19.208Z,1.84
2023-02-19T20:13:32.842Z,1.84
2023-02-19T20:15:45.465Z,1.81
2023-02-19T20:17:57.854Z,1.79
2023-02-19T20:20:10.363Z,1.77
2023-02-19T20:22:22.049Z,1.76
2023-02-19T20:24:34.044Z,1.75
2023-02-19T20:26:45.835Z,1.75
2023-02-19T20:28:57.675Z,1.75
2023-02-19T20:31:10.964Z,1.73
2023-02-19T20:33:22.795Z,1.73
2023-02-19T20:35:34.840Z,1.74
2023-02-19T20:37:50.209Z,1.73
2023-02-19T20:40:02.308Z,1.72
2023-02-19T20:42:17.372Z,1.73
2023-02-19T20:44:30.596Z,1.73
2023-02-19T20:46:45.296Z,1.73
2023-02-19T20:48:57.859Z,1.73
2023-02-19T20:51:10.373Z,1.73
2023-02-19T20:53:22.875Z,1.74
2023-02-19T20:55:36.103Z,1.73
2023-02-19T20:57:53.842Z,1.73
2023-02-19T21:00:09.571Z,1.72
2023-02-19T21:02:28.034Z,1.72
2023-02-19T21:04:40.707Z,1.71
2023-02-19T21:06:52.764Z,1.70
2023-02-19T21:09:07.524Z,1.70
2023-02-19T21:11:20.661Z,1.70
2023-02-19T21:13:33.458Z,1.69
2023-02-19T21:15:47.188Z,1.69
2023-02-19T21:18:00.319Z,1.68
2023-02-19T21:20:14.976Z,1.68
2023-02-19T21:22:28.400Z,1.67
2023-02-19T21:24:42.242Z,1.66
2023-02-19T21:26:55.052Z,1.65
2023-02-19T21:29:08.592Z,1.65
2023-02-19T21:31:22.800Z,1.65
2023-02-19T21:33:36.464Z,1.66
2023-02-19T21:35:48.767Z,1.65
2023-02-19T21:38:03.323Z,1.63
2023-02-19T21:40:15.518Z,1.62
2023-02-19T21:42:28.948Z,1.62
2023-02-19T21:44:43.099Z,1.62
2023-02-19T21:46:55.191Z,1.62
2023-02-19T21:49:07.198Z,1.62
2023-02-19T21:51:21.025Z,1.61
2023-02-19T21:53:32.891Z,1.61
2023-02-19T21:55:56.636Z,1.61
2023-02-19T21:58:11.141Z,1.61
2023-02-19T22:00:23.128Z,1.60
2023-02-19T22:02:35.064Z,1.59
2023-02-19T22:04:53.686Z,1.59
2023-02-19T22:07:05.870Z,1.60
2023-02-19T22:09:18.093Z,1.60
2023-02-19T22:11:29.772Z,1.59
2023-02-19T22:13:41.449Z,1.58
2023-02-19T22:15:53.444Z,1.57
2023-02-19T22:18:06.188Z,1.57
2023-02-19T22:20:21.844Z,1.57
2023-02-19T22:22:34.031Z,1.57
2023-02-19T22:24:45.718Z,1.58
2023-02-19T22:26:58.432Z,1.57
2023-02-19T22:29:12.987Z,1.56
2023-02-19T22:31:26.608Z,1.56
2023-02-19T22:33:38.408Z,1.55
2023-02-19T22:35:50.505Z,1.55
2023-02-19T22:38:02.501Z,1.55
2023-02-19T22:40:14.216Z,1.54
2023-02-19T22:42:26.034Z,1.52
2023-02-19T22:44:38.482Z,1.50
2023-02-19T22:46:53.041Z,1.49
2023-02-19T22:49:06.466Z,1.49
2023-02-19T22:51:21.125Z,1.48
2023-02-19T22:53:33.323Z,1.46
2023-02-19T22:55:45.113Z,1.43
2023-02-19T22:57:56.903Z,1.43
2023-02-19T23:00:11.579Z,1.41
2023-02-19T23:02:23.658Z,1.40
2023-02-19T23:04:35.697Z,1.38
2023-02-19T23:06:48.674Z,1.36
2023-02-19T23:09:08.497Z,1.36
2023-02-19T23:11:29.049Z,1.35
2023-02-19T23:13:42.660Z,1.34
2023-02-19T23:15:54.690Z,1.32
2023-02-19T23:18:08.517Z,1.31
2023-02-19T23:20:20.927Z,1.30
2023-02-19T23:22:34.453Z,1.29
2023-02-19T23:24:46.447Z,1.28
2023-02-19T23:26:59.773Z,1.28
2023-02-19T23:29:15.044Z,1.27
2023-02-19T23:31:27.161Z,1.26
2023-02-19T23:33:39.753Z,1.25
2023-02-19T23:35:51.237Z,1.24
2023-02-19T23:38:03.123Z,1.23
2023-02-19T23:40:14.850Z,1.22
2023-02-19T23:42:26.601Z,1.20
2023-02-19T23:44:38.387Z,1.19
2023-02-19T23:46:51.200Z,1.17
2023-02-19T23:49:03.093Z,1.16
2023-02-19T23:51:15.088Z,1.14
2023-02-19T23:53:27.288Z,1.12
2023-02-19T23:55:39.280Z,1.11
2023-02-19T23:57:53.422Z,1.11
